createdAt,value
2022-08-30T00:05:21.359Z,0.90
2022-08-30T00:10:45.346Z,1.13
2022-08-30T00:16:10.426Z,1.00
2022-08-30T00:21:33.377Z,1.20
2022-08-30T00:26:56.371Z,1.10
2022-08-30T00:32:22.371Z,0.90
2022-08-30T00:37:45.355Z,0.90
2022-08-30T00:43:14.100Z,1.05
2022-08-30T00:48:45.400Z,1.00
2022-08-30T00:54:10.391Z,1.00
2022-08-30T00:59:34.388Z,0.80
2022-08-30T01:04:59.379Z,0.93
2022-08-30T01:10:26.404Z,1.00
2022-08-30T01:15:52.433Z,1.00
2022-08-30T01:21:28.412Z,1.00
2022-08-30T01:26:56.419Z,0.90
2022-08-30T01:32:21.582Z,0.98
2022-08-30T01:37:45.415Z,1.00
2022-08-30T01:43:10.427Z,1.00
2022-08-30T01:48:35.499Z,0.80
2022-08-30T01:53:59.429Z,1.07
2022-08-30T01:59:24.431Z,0.70
2022-08-30T02:04:48.440Z,1.10
2022-08-30T02:10:12.435Z,0.93
2022-08-30T02:15:41.369Z,0.97
2022-08-30T02:21:04.460Z,0.90
2022-08-30T02:26:29.470Z,0.90
2022-08-30T02:31:54.503Z,0.80
2022-08-30T02:37:17.469Z,0.77
2022-08-30T02:42:41.465Z,1.00
2022-08-30T02:48:06.455Z,0.80
2022-08-30T02:53:29.692Z,1.00
2022-08-30T02:58:52.477Z,0.90
2022-08-30T03:04:17.493Z,1.00
2022-08-30T03:09:40.470Z,1.00
2022-08-30T03:15:03.480Z,0.85
2022-08-30T03:20:28.499Z,1.10
2022-08-30T03:25:51.496Z,0.83
2022-08-30T03:31:14.560Z,0.90
2022-08-30T03:36:39.496Z,1.00
2022-08-30T03:42:03.077Z,0.90
2022-08-30T03:47:27.498Z,0.80
2022-08-30T03:52:52.513Z,0.85
2022-08-30T03:58:30.510Z,1.00
2022-08-30T04:03:53.524Z,1.00
2022-08-30T04:09:18.533Z,1.10
2022-08-30T04:14:41.523Z,0.90
2022-08-30T04:20:04.512Z,0.80
2022-08-30T04:25:29.542Z,0.77
2022-08-30T04:30:54.547Z,1.00
2022-08-30T04:36:20.548Z,1.07
2022-08-30T04:41:47.556Z,1.10
2022-08-30T04:47:10.541Z,0.83
2022-08-30T04:52:33.624Z,0.70
2022-08-30T04:57:58.546Z,1.10
2022-08-30T05:03:22.554Z,0.63
2022-08-30T05:08:46.226Z,1.07
2022-08-30T05:14:11.549Z,0.63
2022-08-30T05:19:34.546Z,0.90
2022-08-30T05:24:57.561Z,1.00
2022-08-30T05:30:23.579Z,1.00
2022-08-30T05:35:47.577Z,1.10
2022-08-30T05:41:11.095Z,0.85
2022-08-30T05:46:37.584Z,0.90
2022-08-30T05:52:00.581Z,1.03
2022-08-30T05:57:23.594Z,1.10
2022-08-30T06:02:48.611Z,0.77
2022-08-30T06:08:11.603Z,1.05
2022-08-30T06:13:34.598Z,1.00
2022-08-30T06:18:59.603Z,1.20
2022-08-30T06:24:31.301Z,0.90
2022-08-30T06:30:14.790Z,1.00
2022-08-30T06:35:56.653Z,1.10
2022-08-30T06:41:22.620Z,1.38
2022-08-30T06:46:46.677Z,1.15
2022-08-30T06:52:11.627Z,1.42
2022-08-30T06:57:34.641Z,1.25
2022-08-30T07:02:58.763Z,1.15
2022-08-30T07:08:23.639Z,1.15
2022-08-30T07:13:46.643Z,1.40
2022-08-30T07:19:19.429Z,1.30
2022-08-30T07:24:45.671Z,1.25
2022-08-30T07:30:09.644Z,1.30
2022-08-30T07:35:33.671Z,1.65
2022-08-30T07:40:58.658Z,1.80
2022-08-30T07:46:22.694Z,1.38
2022-08-30T07:51:46.683Z,1.45
2022-08-30T07:57:11.697Z,1.35
2022-08-30T08:02:35.702Z,1.40
2022-08-30T08:07:58.676Z,1.10
2022-08-30T08:13:23.679Z,1.23
2022-08-30T08:18:50.684Z,1.27
2022-08-30T08:24:14.696Z,1.50
2022-08-30T08:29:39.937Z,1.40
2022-08-30T08:35:02.682Z,1.30
2022-08-30T08:40:29.754Z,1.65
2022-08-30T08:46:01.802Z,1.52
2022-08-30T08:51:46.791Z,1.40
2022-08-30T08:57:12.403Z,1.50
2022-08-30T09:02:42.729Z,1.42
2022-08-30T09:08:10.237Z,1.50
2022-08-30T09:13:32.731Z,1.50
2022-08-30T09:18:57.738Z,1.30
2022-08-30T09:24:20.740Z,1.50
2022-08-30T09:29:58.746Z,1.50
2022-08-30T09:35:25.742Z,1.27
2022-08-30T09:40:51.739Z,1.30
2022-08-30T09:46:23.759Z,1.42
2022-08-30T09:51:55.752Z,1.10
2022-08-30T09:57:33.807Z,1.23
2022-08-30T10:03:15.889Z,1.30
2022-08-30T10:08:56.790Z,1.25
2022-08-30T10:14:41.784Z,1.25
2022-08-30T10:20:18.783Z,1.30
2022-08-30T10:25:50.791Z,1.25
2022-08-30T10:31:17.776Z,1.30
2022-08-30T10:36:46.785Z,1.65
2022-08-30T10:42:17.799Z,1.50
2022-08-30T10:47:47.802Z,1.00
2022-08-30T10:53:18.016Z,1.42
2022-08-30T10:58:46.799Z,1.50
2022-08-30T11:04:49.810Z,1.30
2022-08-30T11:10:40.829Z,1.67
2022-08-30T11:16:13.817Z,1.30
2022-08-30T11:21:42.835Z,1.40
2022-08-30T11:27:10.366Z,1.20
2022-08-30T11:33:15.544Z,1.20
2022-08-30T11:39:12.848Z,1.30
2022-08-30T11:44:38.840Z,1.10
2022-08-30T11:50:21.858Z,1.27
2022-08-30T11:55:52.891Z,1.20
2022-08-30T12:01:50.394Z,1.30
2022-08-30T12:07:17.861Z,1.50
2022-08-30T12:13:07.883Z,1.30
2022-08-30T12:18:37.882Z,1.35
2022-08-30T12:24:10.888Z,1.42
2022-08-30T12:29:35.885Z,1.35
2022-08-30T12:35:07.882Z,1.40
2022-08-30T12:40:33.931Z,1.40
2022-08-30T12:46:01.046Z,1.40
2022-08-30T12:51:42.895Z,1.45
2022-08-30T12:57:34.207Z,1.20
2022-08-30T13:03:00.927Z,1.20
2022-08-30T13:08:29.888Z,1.35
2022-08-30T13:13:57.924Z,1.40
2022-08-30T13:19:40.910Z,1.27
2022-08-30T13:25:04.918Z,1.65
2022-08-30T13:30:30.028Z,1.50
2022-08-30T13:35:52.944Z,1.40
2022-08-30T13:41:15.923Z,1.40
2022-08-30T13:46:40.971Z,1.42
2022-08-30T13:52:19.766Z,1.35
2022-08-30T13:57:58.359Z,1.40
2022-08-30T14:03:23.015Z,1.20
2022-08-30T14:08:48.606Z,1.30
2022-08-30T14:14:22.249Z,1.35
2022-08-30T14:19:54.972Z,1.30
2022-08-30T14:25:18.970Z,1.50
2022-08-30T14:30:41.984Z,1.50
2022-08-30T14:36:12.438Z,1.67
2022-08-30T14:41:42.633Z,1.38
2022-08-30T14:47:06.975Z,1.40
2022-08-30T14:52:31.979Z,1.40
2022-08-30T14:57:54.995Z,1.40
2022-08-30T15:03:19.016Z,1.65
2022-08-30T15:08:47.937Z,1.30
2022-08-30T15:14:15.990Z,1.40
2022-08-30T15:19:41.002Z,1.35
2022-08-30T15:25:08.016Z,1.25
2022-08-30T15:30:32.040Z,1.42
2022-08-30T15:35:56.046Z,1.48
2022-08-30T15:41:24.069Z,1.45
2022-08-30T15:46:49.140Z,1.58
2022-08-30T15:52:16.071Z,1.40
2022-08-30T21:18:51.532Z,1.13
2022-08-30T21:23:55.372Z,1.10
2022-08-30T21:28:58.344Z,0.93
2022-08-30T21:34:02.606Z,1.10
2022-08-30T21:39:07.048Z,1.02
2022-08-30T21:44:12.008Z,1.17
2022-08-30T21:49:19.226Z,1.30
2022-08-30T21:54:22.852Z,1.10
2022-08-30T21:59:25.831Z,1.20
2022-08-30T22:04:30.124Z,1.25
2022-08-30T22:09:33.088Z,1.30
2022-08-30T22:14:36.277Z,1.13
2022-08-30T22:19:41.331Z,1.20
2022-08-30T22:24:44.293Z,1.45
2022-08-30T22:29:47.407Z,1.40
2022-08-30T22:34:51.695Z,1.33
2022-08-30T22:39:54.693Z,1.23
2022-08-30T22:44:57.639Z,1.30
2022-08-30T22:50:01.955Z,1.45
2022-08-30T22:55:05.591Z,1.27
2022-08-30T23:00:15.982Z,1.23
2022-08-30T23:05:21.829Z,1.38
2022-08-30T23:10:28.070Z,1.50
2022-08-30T23:15:31.123Z,1.55
2022-08-30T23:20:35.755Z,1.20
2022-08-30T23:25:58.236Z,1.20
2022-08-30T23:31:27.817Z,1.38
2022-08-30T23:36:49.708Z,1.40
2022-08-30T23:42:10.092Z,1.30
2022-08-30T23:47:30.568Z,1.20
2022-08-30T23:52:53.622Z,1.45
2022-08-30T23:58:14.022Z,1.38
